Time;durP1;ratioP1;P1;durP2;ratioP2;P2;SDS_P1;SDS_P2;PMS_P1;PMS_P2;Temp;Humidity;BMP_temperature;BMP_pressure;BME280_temperature;BME280_humidity;BME280_pressure;Samples;Min_cycle;Max_cycle;Signal;HPM_P1;HPM_P2
2021/10/16 00:00:29;;;;;;;12.50;5.13;;;;;;;4.47;100.00;102247.31;5198325;28;20455;-74
2021/10/16 00:02:59;;;;;;;11.27;6.43;;;;;;;4.48;100.00;102245.50;5182335;28;20482;-73
2021/10/16 00:05:30;;;;;;;19.65;8.55;;;;;;;4.42;100.00;102246.75;5202550;28;20486;-74
2021/10/16 00:08:00;;;;;;;21.40;7.95;;;;;;;4.31;100.00;102250.00;5213478;28;20252;-75
2021/10/16 00:10:31;;;;;;;23.48;8.02;;;;;;;4.27;100.00;102250.31;5202728;28;20071;-74
2021/10/16 00:13:01;;;;;;;24.08;8.95;;;;;;;4.23;100.00;102251.44;5203263;28;20540;-74
2021/10/16 00:15:32;;;;;;;24.65;8.15;;;;;;;4.18;100.00;102249.06;5203413;28;20030;-74
2021/10/16 00:18:03;;;;;;;22.75;7.70;;;;;;;4.13;100.00;102251.13;5203201;28;20017;-75
2021/10/16 00:20:33;;;;;;;22.05;7.63;;;;;;;4.09;100.00;102249.59;5203339;28;20354;-73
2021/10/16 00:23:03;;;;;;;18.73;7.18;;;;;;;4.01;100.00;102244.72;5202209;28;20063;-75
2021/10/16 00:25:34;;;;;;;22.75;8.50;;;;;;;3.97;100.00;102248.53;5203372;28;20017;-74
2021/10/16 00:28:04;;;;;;;20.17;7.95;;;;;;;3.93;100.00;102248.78;5201967;28;20028;-74
2021/10/16 00:30:35;;;;;;;30.58;10.25;;;;;;;3.89;100.00;102248.94;5202846;28;20522;-74
2021/10/16 00:33:05;;;;;;;23.23;9.35;;;;;;;3.85;100.00;102244.75;5203075;28;20064;-75
2021/10/16 00:35:36;;;;;;;25.02;8.63;;;;;;;3.82;100.00;102244.94;5202424;28;20040;-74
2021/10/16 00:38:06;;;;;;;16.83;7.43;;;;;;;3.80;100.00;102243.31;5202876;28;20065;-74
2021/10/16 00:40:37;;;;;;;18.77;5.97;;;;;;;3.81;100.00;102242.34;5202491;28;20522;-74
2021/10/16 00:43:08;;;;;;;19.90;6.30;;;;;;;3.85;100.00;102243.91;5202864;28;20108;-74
2021/10/16 00:45:38;;;;;;;22.52;7.80;;;;;;;3.85;100.00;102239.44;5202634;28;20044;-74
2021/10/16 00:48:09;;;;;;;19.35;7.70;;;;;;;3.81;100.00;102245.88;5202359;28;20552;-74
2021/10/16 00:50:39;;;;;;;25.30;7.72;;;;;;;3.75;100.00;102238.25;5201150;28;20122;-74
2021/10/16 00:53:12;;;;;;;25.98;8.65;;;;;;;3.68;100.00;102236.06;5202685;28;20036;-74
2021/10/16 00:55:42;;;;;;;18.77;7.88;;;;;;;3.62;100.00;102239.94;5202381;28;20036;-74
2021/10/16 00:58:13;;;;;;;21.60;7.80;;;;;;;3.62;100.00;102239.94;5201103;28;20477;-74
2021/10/16 01:00:43;;;;;;;24.42;8.48;;;;;;;3.61;100.00;102241.72;5195329;28;20079;-74
2021/10/16 01:03:14;;;;;;;21.73;8.23;;;;;;;3.57;100.00;102242.00;5196327;28;20018;-74
2021/10/16 01:05:44;;;;;;;18.95;7.65;;;;;;;3.53;100.00;102240.44;5203012;28;20022;-74
2021/10/16 01:08:26;;;;;;;23.45;9.13;;;;;;;3.49;100.00;102234.44;5212778;28;20116;-74
2021/10/16 01:11:09;;;;;;;25.92;8.90;;;;;;;3.47;100.00;102241.66;5202467;28;20017;-74
2021/10/16 01:13:40;;;;;;;24.98;8.88;;;;;;;3.45;100.00;102234.69;5202922;28;20040;-75
2021/10/16 01:16:11;;;;;;;19.23;8.77;;;;;;;3.42;100.00;102234.91;5202456;28;20033;-74
2021/10/16 01:18:42;;;;;;;20.55;8.55;;;;;;;3.40;100.00;102229.66;5202373;28;20547;-74
2021/10/16 01:21:13;;;;;;;34.47;7.95;;;;;;;3.40;100.00;102237.63;5201848;28;20037;-74
2021/10/16 01:23:44;;;;;;;23.27;9.75;;;;;;;3.41;100.00;102241.13;5202390;28;20515;-74
2021/10/16 01:26:15;;;;;;;19.55;8.80;;;;;;;3.39;100.00;102238.56;5202258;28;20018;-74
2021/10/16 01:28:46;;;;;;;19.10;9.02;;;;;;;3.35;100.00;102231.72;5202152;28;20034;-74
2021/10/16 01:31:16;;;;;;;19.05;7.95;;;;;;;3.32;100.00;102232.75;5201868;28;20402;-74
2021/10/16 01:33:46;;;;;;;14.48;8.40;;;;;;;3.28;100.00;102236.50;5201177;28;20069;-74
2021/10/16 01:36:17;;;;;;;21.13;8.20;;;;;;;3.26;100.00;102226.91;5201688;28;20026;-74
2021/10/16 01:38:48;;;;;;;19.05;7.88;;;;;;;3.23;100.00;102232.41;5202114;28;20108;-74
2021/10/16 01:41:19;;;;;;;20.73;9.13;;;;;;;3.18;100.00;102224.69;5188871;28;20128;-74
2021/10/16 01:43:49;;;;;;;22.45;8.80;;;;;;;3.16;100.00;102226.56;5202142;28;20032;-74
2021/10/16 01:46:20;;;;;;;17.92;8.68;;;;;;;3.14;100.00;102227.59;5201851;28;20075;-74
2021/10/16 01:48:50;;;;;;;17.23;7.60;;;;;;;3.10;100.00;102229.56;5201316;28;20069;-74
2021/10/16 01:51:21;;;;;;;18.75;8.05;;;;;;;3.13;100.00;102228.56;5201950;28;20029;-74
2021/10/16 01:53:54;;;;;;;18.05;8.75;;;;;;;3.15;100.00;102226.66;5201736;28;20061;-74
2021/10/16 01:56:26;;;;;;;18.23;8.85;;;;;;;3.09;100.00;102227.84;5202311;28;20357;-75
2021/10/16 01:59:15;;;;;;;22.90;8.68;;;;;;;3.01;100.00;102222.09;5200840;28;20454;-74
2021/10/16 02:01:46;;;;;;;23.52;9.20;;;;;;;2.93;100.00;102224.34;5186532;28;20026;-74
2021/10/16 02:04:17;;;;;;;21.40;9.48;;;;;;;2.88;100.00;102226.38;5191093;28;20504;-74
2021/10/16 02:06:48;;;;;;;23.90;9.27;;;;;;;2.84;100.00;102223.88;5200409;28;20049;-74
2021/10/16 02:09:21;;;;;;;25.08;10.13;;;;;;;2.83;100.00;102223.97;5209461;28;20445;-75
2021/10/16 02:11:52;;;;;;;21.23;9.10;;;;;;;2.80;100.00;102222.31;5201331;28;20064;-74
2021/10/16 02:14:25;;;;;;;21.67;9.00;;;;;;;2.80;100.00;102224.97;5201818;28;20060;-74
2021/10/16 02:16:55;;;;;;;22.67;9.98;;;;;;;2.81;100.00;102225.84;5201245;28;20029;-74
2021/10/16 02:19:26;;;;;;;23.95;10.32;;;;;;;2.81;100.00;102221.41;5200660;28;20648;-74
2021/10/16 02:21:56;;;;;;;24.98;11.07;;;;;;;2.82;100.00;102225.78;5201020;28;20040;-74
2021/10/16 02:24:27;;;;;;;30.83;11.90;;;;;;;2.85;100.00;102217.63;5199879;28;20036;-74
2021/10/16 02:26:57;;;;;;;25.85;10.55;;;;;;;2.92;100.00;102222.63;5201638;28;20490;-74
2021/10/16 02:29:28;;;;;;;23.35;9.55;;;;;;;2.98;100.00;102231.09;5201102;28;20544;-74
2021/10/16 02:31:59;;;;;;;19.27;9.40;;;;;;;3.03;100.00;102218.44;5200927;28;20032;-74
2021/10/16 02:34:29;;;;;;;22.08;9.40;;;;;;;3.11;100.00;102220.66;5201012;28;20108;-74
2021/10/16 02:36:59;;;;;;;17.00;7.32;;;;;;;3.17;100.00;102223.00;5201307;28;20022;-74
2021/10/16 02:39:30;;;;;;;22.65;9.60;;;;;;;3.20;100.00;102228.09;5201006;28;20032;-74
2021/10/16 02:42:01;;;;;;;18.33;8.40;;;;;;;3.23;100.00;102220.00;5201034;28;20532;-74
2021/10/16 02:44:31;;;;;;;28.38;10.48;;;;;;;3.29;100.00;102219.66;5187667;28;20470;-74
2021/10/16 02:47:02;;;;;;;27.23;11.40;;;;;;;3.40;100.00;102220.84;5198917;28;20099;-74
2021/10/16 02:49:32;;;;;;;28.08;10.23;;;;;;;3.54;100.00;102219.13;5200455;28;20022;-74
2021/10/16 02:52:03;;;;;;;22.10;10.95;;;;;;;3.66;100.00;102222.00;5200615;28;20044;-74
2021/10/16 02:54:33;;;;;;;23.33;10.18;;;;;;;3.76;100.00;102221.38;5200576;28;20026;-74
2021/10/16 02:57:05;;;;;;;30.88;11.38;;;;;;;3.84;100.00;102219.16;5200422;28;20510;-74
2021/10/16 02:59:36;;;;;;;32.15;10.82;;;;;;;3.90;100.00;102220.59;5200227;28;20152;-74
2021/10/16 03:02:06;;;;;;;24.27;9.63;;;;;;;3.94;100.00;102224.78;5182654;28;20140;-74
2021/10/16 03:04:36;;;;;;;24.05;9.20;;;;;;;3.98;100.00;102230.78;5192440;28;20119;-74
2021/10/16 03:07:07;;;;;;;26.35;10.48;;;;;;;4.00;100.00;102223.56;5204082;28;20113;-74
2021/10/16 03:09:37;;;;;;;24.95;10.98;;;;;;;4.04;100.00;102220.66;5206628;28;20156;-75
2021/10/16 03:12:08;;;;;;;25.30;11.20;;;;;;;4.08;100.00;102216.00;5199468;28;20064;-74
2021/10/16 03:14:39;;;;;;;29.60;11.88;;;;;;;4.12;100.00;102217.53;5200468;28;20017;-74
2021/10/16 03:17:09;;;;;;;25.75;12.32;;;;;;;4.15;100.00;102217.34;5200319;28;20051;-74
2021/10/16 03:19:41;;;;;;;25.38;11.05;;;;;;;4.15;100.00;102215.53;5199866;28;20021;-74
2021/10/16 03:22:11;;;;;;;25.90;10.73;;;;;;;4.14;100.00;102208.53;5200254;28;20029;-74
2021/10/16 03:24:42;;;;;;;22.10;10.38;;;;;;;4.16;100.00;102216.41;5200397;28;20038;-74
2021/10/16 03:27:12;;;;;;;31.50;11.82;;;;;;;4.19;100.00;102212.72;5199554;28;20053;-74
2021/10/16 03:29:42;;;;;;;21.30;10.15;;;;;;;4.20;100.00;102215.28;5200036;28;20500;-74
2021/10/16 03:32:13;;;;;;;24.13;11.70;;;;;;;4.21;100.00;102209.00;5200256;28;20029;-74
2021/10/16 03:34:43;;;;;;;27.67;12.27;;;;;;;4.21;100.00;102209.00;5200144;28;20477;-74
2021/10/16 03:37:14;;;;;;;33.72;12.70;;;;;;;4.20;100.00;102211.75;5200224;28;20044;-74
2021/10/16 03:39:44;;;;;;;32.58;11.75;;;;;;;4.15;100.00;102206.72;5199926;28;20021;-74
2021/10/16 03:42:15;;;;;;;26.75;10.23;;;;;;;4.14;100.00;102205.03;5200057;28;20179;-74
2021/10/16 03:44:45;;;;;;;26.80;10.95;;;;;;;4.18;100.00;102206.56;5200652;28;20104;-74
2021/10/16 03:47:16;;;;;;;28.30;11.95;;;;;;;4.17;100.00;102204.84;5199577;28;20460;-74
2021/10/16 03:49:46;;;;;;;29.17;11.52;;;;;;;4.20;100.00;102209.97;5199625;28;20033;-74
2021/10/16 03:52:17;;;;;;;34.90;12.32;;;;;;;4.27;100.00;102213.97;5198587;28;20038;-74
2021/10/16 03:54:47;;;;;;;24.45;11.02;;;;;;;4.25;100.00;102205.22;5199781;28;20438;-74
2021/10/16 03:57:18;;;;;;;25.00;11.07;;;;;;;4.24;100.00;102206.19;5200587;28;20029;-74
2021/10/16 03:59:48;;;;;;;31.80;11.30;;;;;;;4.23;100.00;102207.13;5203132;28;20064;-75
2021/10/16 04:02:19;;;;;;;26.02;11.13;;;;;;;4.23;100.00;102206.28;5182523;28;20028;-74
2021/10/16 04:04:49;;;;;;;20.88;10.95;;;;;;;4.21;100.00;102206.34;5195847;28;20104;-74
2021/10/16 04:07:20;;;;;;;27.48;11.82;;;;;;;4.19;100.00;102202.94;5208642;28;20040;-74
2021/10/16 04:09:50;;;;;;;27.65;11.43;;;;;;;4.15;100.00;102204.91;5208545;28;20021;-74
2021/10/16 04:12:21;;;;;;;25.92;10.98;;;;;;;4.11;100.00;102205.19;5203771;28;20153;-74
2021/10/16 04:14:51;;;;;;;22.27;10.48;;;;;;;4.06;100.00;102194.84;5203445;28;20108;-74
2021/10/16 04:17:22;;;;;;;25.02;11.60;;;;;;;4.02;100.00;102201.31;5203765;28;20048;-74
2021/10/16 04:19:52;;;;;;;30.70;12.00;;;;;;;4.03;100.00;102202.16;5202924;28;20144;-74
2021/10/16 04:22:23;;;;;;;30.30;12.88;;;;;;;4.01;100.00;102202.22;5203830;28;20055;-74
2021/10/16 04:24:53;;;;;;;30.23;11.40;;;;;;;4.02;100.00;102208.41;5202939;28;20060;-74
2021/10/16 04:27:24;;;;;;;24.13;9.43;;;;;;;3.94;100.00;102203.53;5203234;28;20030;-74
2021/10/16 04:29:54;;;;;;;23.98;9.82;;;;;;;3.94;100.00;102206.19;5202809;28;20022;-74
2021/10/16 04:32:25;;;;;;;23.60;11.45;;;;;;;3.90;100.00;102213.47;5203114;28;20481;-74
2021/10/16 04:34:55;;;;;;;23.92;11.50;;;;;;;3.88;100.00;102214.53;5202963;28;20040;-74
2021/10/16 04:37:25;;;;;;;25.30;10.90;;;;;;;3.87;100.00;102210.16;5203335;28;20071;-74
2021/10/16 04:39:56;;;;;;;25.42;11.98;;;;;;;3.86;100.00;102211.94;5201421;28;20104;-74
2021/10/16 04:42:26;;;;;;;24.02;11.48;;;;;;;3.85;100.00;102218.19;5202823;28;20030;-74
2021/10/16 04:44:57;;;;;;;25.55;11.00;;;;;;;3.92;100.00;102225.84;5201856;28;20132;-74
2021/10/16 04:47:28;;;;;;;21.15;11.30;;;;;;;3.93;100.00;102223.09;5202647;28;20066;-74
2021/10/16 04:49:59;;;;;;;27.92;12.95;;;;;;;3.95;100.00;102223.84;5202627;28;20060;-74
2021/10/16 04:52:29;;;;;;;32.65;14.63;;;;;;;3.97;100.00;102219.31;5201244;28;20060;-74
2021/10/16 04:55:00;;;;;;;36.28;16.42;;;;;;;3.99;100.00;102222.72;5201249;28;20482;-74
2021/10/16 04:57:31;;;;;;;47.20;18.80;;;;;;;4.00;100.00;102219.09;5202736;28;20036;-74
2021/10/16 05:00:02;;;;;;;33.30;16.33;;;;;;;4.02;100.00;102222.53;5200383;28;20100;-74
2021/10/16 05:02:33;;;;;;;35.28;15.20;;;;;;;4.04;100.00;102225.94;5182697;28;20387;-74
2021/10/16 05:05:03;;;;;;;45.42;14.50;;;;;;;4.08;100.00;102213.34;5199296;28;20079;-77
2021/10/16 05:07:34;;;;;;;31.05;13.63;;;;;;;4.11;100.00;102218.47;5210110;28;20432;-77
2021/10/16 05:10:05;;;;;;;38.33;15.18;;;;;;;4.10;100.00;102209.66;5206992;28;20043;-78
2021/10/16 05:12:36;;;;;;;35.13;15.55;;;;;;;4.04;100.00;102211.81;5202856;28;20034;-79
2021/10/16 05:15:07;;;;;;;34.13;15.02;;;;;;;4.00;100.00;102211.13;5204631;28;20371;-77
2021/10/16 05:17:37;;;;;;;32.45;14.10;;;;;;;3.98;100.00;102207.72;5204525;28;20459;-77
2021/10/16 05:20:08;;;;;;;26.85;12.38;;;;;;;3.92;100.00;102200.13;5179848;28;20025;-77
2021/10/16 05:22:39;;;;;;;29.58;12.90;;;;;;;3.83;100.00;102208.63;5194889;28;20040;-77
2021/10/16 05:25:10;;;;;;;36.75;13.45;;;;;;;3.79;100.00;102197.31;5202188;28;20061;-77
2021/10/16 05:27:42;;;;;;;38.90;14.55;;;;;;;3.72;100.00;102198.66;5198876;28;20318;-77
2021/10/16 05:30:12;;;;;;;46.33;16.67;;;;;;;3.65;100.00;102199.91;5189971;28;20035;-77
2021/10/16 05:32:43;;;;;;;36.63;15.40;;;;;;;3.59;100.00;102201.13;5197821;28;20021;-77
2021/10/16 05:35:14;;;;;;;44.38;17.27;;;;;;;3.54;100.00;102197.88;5200234;28;20486;-77
2021/10/16 05:37:45;;;;;;;36.55;15.55;;;;;;;3.45;100.00;102206.38;5200764;28;20340;-77
2021/10/16 05:40:17;;;;;;;42.28;13.88;;;;;;;3.35;100.00;102207.84;5198538;28;20076;-77
2021/10/16 05:42:47;;;;;;;31.85;13.50;;;;;;;3.29;100.00;102210.84;5200262;28;20036;-77
2021/10/16 05:45:18;;;;;;;30.45;12.43;;;;;;;3.23;100.00;102217.34;5199359;28;20029;-77
2021/10/16 05:47:48;;;;;;;31.15;14.02;;;;;;;3.20;100.00;102206.91;5203274;28;20029;-77
2021/10/16 05:50:19;;;;;;;37.65;15.68;;;;;;;3.15;100.00;102210.75;5199942;28;20275;-77
2021/10/16 05:52:50;;;;;;;35.67;15.98;;;;;;;3.07;100.00;102209.38;5186973;28;20060;-77
2021/10/16 05:55:21;;;;;;;49.42;17.15;;;;;;;3.01;100.00;102216.81;5194820;28;20101;-77
2021/10/16 05:57:52;;;;;;;41.22;17.85;;;;;;;2.96;100.00;102208.25;5200210;28;20029;-77
2021/10/16 06:00:23;;;;;;;36.25;14.38;;;;;;;2.89;100.00;102207.72;5194646;28;20029;-77
2021/10/16 06:02:53;;;;;;;35.45;15.60;;;;;;;2.82;100.00;102216.97;5195874;28;20326;-76
2021/10/16 06:05:24;;;;;;;175.95;20.02;;;;;;;2.75;100.00;102223.53;5197887;28;20017;-77
2021/10/16 06:07:54;;;;;;;34.25;12.27;;;;;;;2.69;100.00;102222.06;5209045;28;20032;-77
2021/10/16 06:10:25;;;;;;;24.42;12.32;;;;;;;2.65;100.00;102217.00;5200784;28;20030;-77
2021/10/16 06:12:56;;;;;;;35.38;13.60;;;;;;;2.60;100.00;102211.94;5199908;28;20163;-77
2021/10/16 06:15:26;;;;;;;35.92;14.50;;;;;;;2.58;100.00;102222.63;5198934;28;20065;-77
2021/10/16 06:17:57;;;;;;;25.23;10.80;;;;;;;2.57;100.00;102222.72;5201347;28;20025;-80
2021/10/16 06:20:30;;;;;;;31.65;13.02;;;;;;;2.56;100.00;102220.97;5198222;28;20482;-77
2021/10/16 06:23:00;;;;;;;33.55;13.95;;;;;;;2.54;100.00;102228.16;5200648;28;20029;-76
2021/10/16 06:25:31;;;;;;;29.08;13.73;;;;;;;2.54;100.00;102226.38;5199833;28;20079;-77
2021/10/16 06:28:02;;;;;;;33.00;14.57;;;;;;;2.57;100.00;102233.31;5199504;28;20029;-76
2021/10/16 06:30:32;;;;;;;30.25;13.23;;;;;;;2.70;100.00;102230.84;5198772;28;20041;-76
2021/10/16 06:33:03;;;;;;;35.33;14.82;;;;;;;2.81;100.00;102233.78;5197604;28;20119;-76
2021/10/16 06:35:37;;;;;;;33.88;15.30;;;;;;;2.93;100.00;102242.91;5168132;28;20033;-77
2021/10/16 06:38:08;;;;;;;31.48;15.50;;;;;;;3.07;100.00;102243.00;5186555;28;20033;-77
2021/10/16 06:40:39;;;;;;;35.05;14.93;;;;;;;3.18;100.00;102237.09;5198656;28;20056;-76
2021/10/16 06:43:09;;;;;;;31.00;13.23;;;;;;;3.29;100.00;102238.22;5205975;28;20417;-76
2021/10/16 06:45:40;;;;;;;30.73;13.98;;;;;;;3.45;100.00;102240.00;5199378;28;20500;-77
2021/10/16 06:48:10;;;;;;;26.17;14.20;;;;;;;3.59;100.00;102235.63;5196749;28;20413;-77
2021/10/16 06:50:41;;;;;;;30.20;15.10;;;;;;;3.76;100.00;102236.47;5196954;28;20116;-76
2021/10/16 06:53:11;;;;;;;36.33;13.80;;;;;;;3.94;100.00;102239.88;5199174;28;20159;-77
2021/10/16 06:55:42;;;;;;;37.90;13.48;;;;;;;4.11;100.00;102240.56;5199074;28;20029;-77
2021/10/16 06:58:13;;;;;;;32.10;14.07;;;;;;;4.36;100.00;102241.78;5199285;28;20037;-77
2021/10/16 07:00:43;;;;;;;31.52;12.70;;;;;;;4.63;100.00;102245.44;5192021;28;20040;-77
2021/10/16 07:03:14;;;;;;;26.83;13.05;;;;;;;4.91;100.00;102241.91;5183440;28;20029;-78
2021/10/16 07:05:45;;;;;;;29.35;13.73;;;;;;;5.22;100.00;102245.31;5200433;28;20046;-77
2021/10/16 07:08:15;;;;;;;22.85;12.45;;;;;;;5.64;100.00;102243.50;5208221;28;20147;-77
2021/10/16 07:10:46;;;;;;;36.95;14.65;;;;;;;6.03;100.00;102245.38;5203062;28;20033;-77
2021/10/16 07:13:16;;;;;;;35.03;13.35;;;;;;;6.15;100.00;102249.88;5198658;28;20445;-77
2021/10/16 07:15:47;;;;;;;27.92;12.63;;;;;;;6.26;100.00;102251.81;5198732;28;20331;-77
2021/10/16 07:18:17;;;;;;;38.95;13.10;;;;;;;6.45;100.00;102254.06;5196819;28;20099;-77
2021/10/16 07:20:48;;;;;;;27.48;11.85;;;;;;;6.52;100.00;102259.81;5198448;28;20029;-77
2021/10/16 07:23:26;;;;;;;26.05;11.18;;;;;;;6.75;100.00;102262.63;5197287;28;20017;-77
2021/10/16 07:25:57;;;;;;;26.40;10.30;;;;;;;7.04;100.00;102269.56;5205618;28;20080;-77
2021/10/16 07:28:28;;;;;;;24.98;10.15;;;;;;;7.31;100.00;102266.72;5198239;28;20548;-78
2021/10/16 07:30:59;;;;;;;24.85;8.73;;;;;;;7.69;100.00;102267.47;5198216;28;20029;-77
2021/10/16 07:33:29;;;;;;;28.85;8.98;;;;;;;7.99;100.00;102264.31;5203821;28;20108;-78
2021/10/16 07:36:00;;;;;;;18.80;8.30;;;;;;;8.50;100.00;102263.19;5202422;28;20029;-76
2021/10/16 07:38:30;;;;;;;26.80;8.77;;;;;;;9.01;100.00;102263.59;5201849;28;20393;-76
2021/10/16 07:41:01;;;;;;;22.20;7.95;;;;;;;9.45;100.00;102259.19;5201199;28;20028;-77
2021/10/16 07:43:32;;;;;;;20.27;7.80;;;;;;;9.93;100.00;102266.00;5203420;28;20529;-78
2021/10/16 07:46:02;;;;;;;16.17;6.60;;;;;;;9.93;100.00;102266.84;5201432;28;20033;-77
2021/10/16 07:48:33;;;;;;;19.52;7.25;;;;;;;9.83;100.00;102265.91;5201913;28;20025;-77
2021/10/16 07:51:03;;;;;;;24.98;8.18;;;;;;;9.74;100.00;102263.97;5200740;28;20029;-76
2021/10/16 07:53:34;;;;;;;19.88;6.82;;;;;;;9.78;100.00;102273.47;5200660;28;20042;-77
2021/10/16 07:56:04;;;;;;;34.30;7.80;;;;;;;9.69;100.00;102263.50;5201920;28;20037;-78
2021/10/16 07:58:37;;;;;;;16.98;7.18;;;;;;;9.53;100.00;102264.75;5201218;28;20108;-75
2021/10/16 08:01:08;;;;;;;20.92;7.60;;;;;;;9.55;100.00;102262.81;5190732;28;20033;-75
2021/10/16 08:03:39;;;;;;;23.58;7.60;;;;;;;9.57;100.00;102268.03;5200867;28;20037;-75
2021/10/16 08:06:09;;;;;;;29.35;8.52;;;;;;;9.66;100.00;102269.97;5200204;28;20022;-75
2021/10/16 08:08:40;;;;;;;17.63;6.93;;;;;;;9.88;100.00;102263.69;5212007;28;20105;-77
2021/10/16 08:11:10;;;;;;;19.48;7.68;;;;;;;10.51;100.00;102261.97;5181322;28;20112;-75
2021/10/16 08:13:41;;;;;;;21.52;7.20;;;;;;;11.38;100.00;102277.63;5199694;28;20421;-75
2021/10/16 08:16:11;;;;;;;19.13;6.82;;;;;;;11.51;100.00;102270.19;5197726;28;20061;-75
2021/10/16 08:18:42;;;;;;;20.67;6.72;;;;;;;11.48;100.00;102269.59;5200224;28;20017;-76
2021/10/16 08:21:12;;;;;;;23.50;6.90;;;;;;;11.44;100.00;102266.34;5201320;28;20116;-75
2021/10/16 08:23:43;;;;;;;22.33;7.32;;;;;;;11.40;100.00;102273.00;5200432;28;20113;-76
2021/10/16 08:26:13;;;;;;;19.40;6.78;;;;;;;11.34;100.00;102271.69;5201381;28;20025;-74
2021/10/16 08:28:43;;;;;;;20.45;7.53;;;;;;;11.27;100.00;102280.44;5202583;28;20036;-77
2021/10/16 08:31:14;;;;;;;21.58;8.40;;;;;;;11.30;100.00;102274.81;5200766;28;20025;-77
2021/10/16 08:33:46;;;;;;;24.80;7.60;;;;;;;11.25;100.00;102275.22;5200222;28;20474;-77
2021/10/16 08:36:17;;;;;;;20.27;7.72;;;;;;;11.29;100.00;102278.44;5202787;28;20033;-77
2021/10/16 08:38:48;;;;;;;24.80;9.02;;;;;;;11.38;100.00;102281.16;5200279;28;20383;-78
2021/10/16 08:41:19;;;;;;;20.38;6.72;;;;;;;11.49;100.00;102269.47;5201303;28;20029;-81
2021/10/16 08:43:49;;;;;;;19.08;7.68;;;;;;;11.71;100.00;102271.09;5201612;28;20029;-80
2021/10/16 08:46:20;;;;;;;17.65;6.60;;;;;;;11.81;100.00;102271.94;5202280;28;20605;-79
2021/10/16 08:48:53;;;;;;;22.38;6.97;;;;;;;12.00;100.00;102268.47;5201576;28;20033;-78
2021/10/16 08:51:23;;;;;;;17.10;6.07;;;;;;;12.28;100.00;102265.88;5201462;28;20029;-80
2021/10/16 08:53:54;;;;;;;20.63;7.55;;;;;;;12.63;100.00;102271.50;5199705;28;20067;-80
2021/10/16 08:56:24;;;;;;;18.75;6.53;;;;;;;13.02;100.00;102266.00;5202703;28;20112;-80
2021/10/16 08:58:55;;;;;;;16.35;6.78;;;;;;;13.24;100.00;102272.03;5179867;28;20409;-81
2021/10/16 09:01:26;;;;;;;19.45;7.82;;;;;;;13.54;100.00;102266.34;5203445;28;20492;-81
2021/10/16 09:03:58;;;;;;;15.63;5.82;;;;;;;14.02;100.00;102275.94;5201981;28;20396;-79
2021/10/16 09:06:30;;;;;;;22.02;7.28;;;;;;;14.07;100.00;102287.13;5200641;28;20410;-79
2021/10/16 09:09:04;;;;;;;20.98;7.25;;;;;;;14.27;100.00;102278.88;5210695;28;20027;-80
2021/10/16 09:11:39;;;;;;;22.33;6.38;;;;;;;14.66;100.00;102284.75;5201732;28;20322;-80
2021/10/16 09:14:13;;;;;;;17.70;7.03;;;;;;;15.15;100.00;102277.78;5200341;28;20022;-80
2021/10/16 09:16:46;;;;;;;12.95;6.50;;;;;;;15.47;100.00;102279.81;5201863;28;20022;-79
2021/10/16 09:19:28;;;;;;;23.48;6.38;;;;;;;15.71;100.00;102279.06;5200609;28;20489;-80
2021/10/16 09:22:01;;;;;;;17.65;5.55;;;;;;;15.92;100.00;102281.31;5191289;28;20346;-81
2021/10/16 09:24:36;;;;;;;19.48;5.65;;;;;;;15.80;100.00;102277.22;5203295;28;20048;-80
2021/10/16 09:27:11;;;;;;;19.40;6.10;;;;;;;16.04;100.00;102276.41;5203284;28;20060;-82
2021/10/16 09:29:46;;;;;;;12.95;5.43;;;;;;;16.03;100.00;102277.44;5202774;28;20035;-80
2021/10/16 09:32:23;;;;;;;18.85;5.32;;;;;;;16.23;100.00;102275.25;5205124;28;20057;-80
2021/10/16 09:34:59;;;;;;;13.93;5.70;;;;;;;15.98;100.00;102280.63;5207285;28;20500;-80
2021/10/16 09:37:30;;;;;;;22.42;6.07;;;;;;;16.01;100.00;102279.44;5206271;28;20033;-80
2021/10/16 09:40:02;;;;;;;18.55;5.28;;;;;;;15.91;100.00;102273.34;5203552;28;20486;-80
2021/10/16 09:42:36;;;;;;;20.63;5.30;;;;;;;15.93;100.00;102272.16;5202461;28;20082;-79
2021/10/16 09:45:10;;;;;;;16.83;5.45;;;;;;;15.96;100.00;102270.97;5200663;28;20128;-80
2021/10/16 09:47:54;;;;;;;17.67;5.53;;;;;;;16.14;100.00;102278.97;5200023;28;20033;-78
2021/10/16 09:50:25;;;;;;;19.52;5.00;;;;;;;16.39;100.00;102264.41;5199712;28;20108;-78
2021/10/16 09:52:55;;;;;;;14.10;4.85;;;;;;;16.63;100.00;102271.66;5199057;28;20188;-79
2021/10/16 09:55:26;;;;;;;12.07;4.47;;;;;;;15.90;100.00;102275.19;5199336;28;20026;-77
2021/10/16 09:57:56;;;;;;;11.55;3.50;;;;;;;15.51;100.00;102272.19;5199064;28;20029;-76
2021/10/16 10:00:27;;;;;;;12.00;3.70;;;;;;;15.26;100.00;102272.13;5193597;28;20167;-79
2021/10/16 10:02:58;;;;;;;18.23;4.05;;;;;;;15.35;100.00;102270.28;5189652;28;20271;-79
2021/10/16 10:05:30;;;;;;;13.32;3.40;;;;;;;15.46;100.00;102271.84;5199748;28;20254;-80
2021/10/16 10:08:01;;;;;;;15.88;3.60;;;;;;;15.51;100.00;102269.47;5209632;28;20060;-80
2021/10/16 10:10:32;;;;;;;10.52;3.05;;;;;;;15.50;100.00;102270.50;5198050;28;20060;-80
2021/10/16 10:13:03;;;;;;;10.95;2.40;;;;;;;15.59;100.00;102271.38;5198846;28;20029;-79
2021/10/16 10:15:33;;;;;;;11.15;2.60;;;;;;;15.73;93.97;102274.34;5199098;28;20091;-79
2021/10/16 10:20:54;;;;;;;12.25;2.97;;;;;;;15.63;91.47;102273.63;5197008;28;20529;-78
2021/10/16 10:23:27;;;;;;;12.00;2.53;;;;;;;15.75;98.54;102268.75;5198614;28;20051;-77
2021/10/16 10:26:27;;;;;;;6.88;1.85;;;;;;;15.79;83.59;102270.97;5198741;28;20010;-77
2021/10/16 10:29:02;;;;;;;8.05;1.58;;;;;;;16.00;92.13;102266.94;5197888;28;20484;-78
2021/10/16 10:31:45;;;;;;;8.35;1.88;;;;;;;16.05;87.12;102270.81;5197180;28;20036;-78
2021/10/16 10:34:23;;;;;;;8.82;2.00;;;;;;;15.87;64.34;102275.56;5207767;28;20041;-78
2021/10/16 10:37:01;;;;;;;9.13;1.65;;;;;;;16.08;66.42;102272.34;5198636;28;20030;-83
2021/10/16 10:39:32;;;;;;;6.13;1.40;;;;;;;15.87;59.31;102272.84;5198347;28;20049;-81
2021/10/16 10:42:23;;;;;;;7.55;1.40;;;;;;;16.10;63.60;102275.72;5201975;28;20448;-80
2021/10/16 10:44:57;;;;;;;9.23;1.52;;;;;;;16.30;65.84;102263.56;5199628;28;20081;-82
2021/10/16 10:47:28;;;;;;;15.10;2.60;;;;;;;16.41;58.19;102265.06;5201730;28;20018;-83
2021/10/16 10:50:01;;;;;;;9.55;1.42;;;;;;;16.42;59.65;102264.06;5197901;28;20061;-81
2021/10/16 10:52:54;;;;;;;9.20;1.45;;;;;;;16.45;57.37;102260.16;5182142;28;20025;-83
2021/10/16 10:55:25;;;;;;;6.82;1.45;;;;;;;16.76;60.60;102261.16;5201151;28;20041;-81
2021/10/16 10:57:58;;;;;;;6.50;1.60;;;;;;;17.14;64.16;102263.28;5199163;28;20029;-80
2021/10/16 11:00:30;;;;;;;8.63;1.88;;;;;;;16.56;58.33;102262.50;5192483;28;20028;-80
2021/10/16 11:03:20;;;;;;;7.93;1.80;;;;;;;16.14;62.30;102260.00;5179424;28;20065;-80
2021/10/16 11:05:51;;;;;;;7.50;1.77;;;;;;;15.87;59.51;102263.88;5177898;28;20670;-81
2021/10/16 11:08:22;;;;;;;9.88;1.65;;;;;;;15.77;64.09;102266.75;5187179;28;20043;-81
2021/10/16 11:10:58;;;;;;;6.90;1.70;;;;;;;15.61;63.65;102261.22;5199219;28;20448;-81
2021/10/16 11:13:32;;;;;;;9.90;1.52;;;;;;;15.54;57.51;102261.06;5200499;28;20025;-83
2021/10/16 11:16:05;;;;;;;9.82;1.67;;;;;;;15.42;59.44;102263.22;5199115;28;20116;-79
2021/10/16 11:18:37;;;;;;;10.88;1.95;;;;;;;15.29;62.78;102263.66;5208254;28;20056;-82
2021/10/16 11:21:10;;;;;;;6.10;1.60;;;;;;;15.26;63.64;102253.19;5156519;28;20076;-79
2021/10/16 11:23:41;;;;;;;7.35;2.17;;;;;;;15.26;81.17;102255.91;5201889;28;20040;-80
2021/10/16 11:26:15;;;;;;;7.68;1.90;;;;;;;15.29;92.80;102255.56;5201545;28;20071;-80
2021/10/16 11:28:46;;;;;;;5.43;1.75;;;;;;;15.41;75.20;102249.84;5203908;28;20120;-81
2021/10/16 11:31:21;;;;;;;9.15;1.38;;;;;;;15.50;65.99;102248.88;5203186;28;20298;-83
2021/10/16 11:33:51;;;;;;;8.60;1.75;;;;;;;15.50;66.81;102246.16;5199877;28;20026;-80
2021/10/16 11:36:24;;;;;;;7.22;1.80;;;;;;;15.57;62.51;102244.50;5199050;28;20293;-80